Airfield :
LOGIN :

Register | Disclaimer

   EN    FR    IT 

 










Legend :    VFR   Marginal VFR   IFR   Intensive IFR   Very Intensive IFR
Visi :
Ceiling :
>= 8 km
>= 3000ft
5 to 8 km
1000 to 3000 ft
1500m to 5 km
500 to 1000 ft
800 to 1500m
200 to 500 ft
< 800m
< 200 ft
Symbols :   Thunderstorms  Fog  Heavy snow  Heavy precipitations  Wind > 20 kt
SIGMETs :     Misc.  Thunderstorms  Icing  Turbulence  Mountain Waves  Volcanic Ashes






- Airport Elevation : 2026 ft
- IATA code : TOJ


LETO - Madrid Torrejon

CURRENT METAR :
  • 252030Z 04015KT CAVOK 17/04 Q1013 NOSIG

EXPIRED METARs :
  • 252000Z 04016KT CAVOK 18/03 Q1013 NOSIG
  • 251930Z 05013KT 020V080 CAVOK 18/03 Q1012 NOSIG
  • 251900Z 04013KT CAVOK 18/02 Q1012 NOSIG
  • 251830Z 04015KT CAVOK 19/02 Q1012 NOSIG
  • 251800Z 04013KT CAVOK 20/02 Q1011 NOSIG

TAF TAF LETO
Valid from the 25 at 18:00 until the 26 at 18:00 UTC


251700Z 2518/2618 02011KT CAVOK TX24/2615Z TN10/2606Z
PROB30
TEMPO 2518/2601 03015G25KT
PROB30
TEMPO 2520/2611 SHRA SCT040TCU



MET'MAP, your aeronautical weather chart ! - Copyright ORBIFLY December 2007 - Disclaimer

ORBIFLY MET'MAP TEAM :

Programming & Development : Alexandra Zaïnal
Original concept : Baudouin d'Aumeries
Technical & hardware support : Manuel Goepfert
Assistance : Marc-Olivier Méhu




SOURCES & CREDITS :

   NOAA